createdAt,value
2022-12-20T06:01:43.530Z,7.25
2022-12-20T06:04:17.412Z,6.85
2022-12-20T06:09:38.155Z,6.80
2022-12-20T06:16:46.449Z,8.55
2022-12-20T06:19:48.484Z,8.10
2022-12-20T06:22:17.716Z,7.15
2022-12-20T06:24:56.776Z,7.80
2022-12-20T06:27:30.038Z,7.90
2022-12-20T06:30:11.305Z,8.57
2022-12-20T06:33:11.140Z,8.63
2022-12-20T06:35:37.744Z,10.23
2022-12-20T06:38:06.318Z,9.00
2022-12-20T06:40:34.946Z,8.98
2022-12-20T06:43:02.183Z,9.18
2022-12-20T06:45:29.041Z,9.38
2022-12-20T06:47:57.657Z,9.68
2022-12-20T06:50:25.900Z,9.45
2022-12-20T06:52:52.451Z,10.27
2022-12-20T06:55:20.219Z,9.55
2022-12-20T06:57:47.083Z,10.38
2022-12-20T07:00:16.921Z,12.63
2022-12-20T07:02:43.572Z,12.20
2022-12-20T07:05:11.314Z,11.43
2022-12-20T07:07:44.538Z,11.75
2022-12-20T07:10:12.512Z,11.45
2022-12-20T07:12:45.471Z,11.30
2022-12-20T07:15:15.108Z,11.68
2022-12-20T07:17:41.815Z,12.30
2022-12-20T07:20:13.788Z,12.75
2022-12-20T07:22:41.359Z,12.65
2022-12-20T07:25:09.426Z,12.43
2022-12-20T07:27:36.192Z,12.52
2022-12-20T07:30:05.098Z,12.90
2022-12-20T07:32:32.085Z,13.18
2022-12-20T07:34:59.829Z,13.35
2022-12-20T07:37:28.844Z,12.48
2022-12-20T07:39:56.049Z,14.27
2022-12-20T07:42:23.426Z,13.65
2022-12-20T07:44:50.890Z,13.57
2022-12-20T07:47:17.458Z,13.52
2022-12-20T07:49:44.731Z,13.85
2022-12-20T07:52:14.592Z,13.73
2022-12-20T07:54:46.541Z,13.30
2022-12-20T07:57:23.375Z,12.85
2022-12-20T07:59:57.143Z,14.13
2022-12-20T08:02:30.924Z,13.93
2022-12-20T08:04:58.479Z,12.52
2022-12-20T08:07:26.877Z,13.07
2022-12-20T08:09:54.292Z,12.23
2022-12-20T08:12:21.834Z,13.25
2022-12-20T08:14:52.529Z,12.05
2022-12-20T08:17:19.192Z,12.23
2022-12-20T08:19:47.451Z,12.73
2022-12-20T08:22:15.069Z,11.93
2022-12-20T08:24:41.670Z,11.82
2022-12-20T08:27:09.107Z,11.57
2022-12-20T08:29:35.692Z,11.20
2022-12-20T08:32:02.773Z,11.38
2022-12-20T08:34:29.371Z,11.25
2022-12-20T08:36:56.602Z,12.50
2022-12-20T08:39:23.185Z,10.32
2022-12-20T08:41:50.357Z,10.95
2022-12-20T08:44:16.969Z,10.98
2022-12-20T08:46:44.283Z,11.13
2022-12-20T08:49:10.933Z,11.15
2022-12-20T08:51:38.248Z,11.93
2022-12-20T08:54:05.317Z,11.32
2022-12-20T08:56:32.515Z,10.70
2022-12-20T08:58:59.147Z,11.40
2022-12-20T09:01:27.492Z,10.90
2022-12-20T09:03:54.454Z,10.52
2022-12-20T09:06:23.460Z,10.98
2022-12-20T09:08:50.141Z,10.95
2022-12-20T09:11:26.087Z,11.02
2022-12-20T09:13:54.980Z,10.35
2022-12-20T09:16:26.812Z,10.40
2022-12-20T09:19:00.672Z,9.93
2022-12-20T09:21:29.978Z,9.77
2022-12-20T09:23:57.060Z,11.77
2022-12-20T09:26:24.874Z,9.98
2022-12-20T09:28:52.032Z,10.98
2022-12-20T09:31:21.907Z,8.98
2022-12-20T09:33:48.849Z,9.88
2022-12-20T09:36:18.459Z,15.30
2022-12-20T09:38:46.837Z,12.32
2022-12-20T09:41:29.012Z,9.90
2022-12-20T09:43:57.251Z,9.02
2022-12-20T09:46:25.751Z,9.82
2022-12-20T09:48:53.597Z,9.40
2022-12-20T09:51:39.267Z,9.05
2022-12-20T09:54:15.238Z,9.80
2022-12-20T09:57:26.372Z,9.85
2022-12-20T09:59:57.274Z,8.95
2022-12-20T10:02:56.716Z,8.75
2022-12-20T10:05:17.922Z,8.98
2022-12-20T10:07:57.793Z,9.25
2022-12-20T10:10:51.812Z,8.70
2022-12-20T10:13:56.178Z,8.30
2022-12-20T10:16:42.277Z,9.15
2022-12-20T10:19:25.244Z,8.20
2022-12-20T10:22:14.375Z,8.52
2022-12-20T10:24:48.434Z,8.30
2022-12-20T10:27:18.587Z,8.77
2022-12-20T10:29:47.709Z,8.63
2022-12-20T10:32:17.678Z,9.10
2022-12-20T10:35:11.053Z,8.80
2022-12-20T10:37:41.367Z,9.02
2022-12-20T10:40:39.577Z,8.27
2022-12-20T10:43:18.320Z,9.75
2022-12-20T10:45:57.926Z,9.30
2022-12-20T10:48:30.455Z,9.43
2022-12-20T10:51:02.793Z,8.10
2022-12-20T10:53:31.808Z,8.98
2022-12-20T10:56:21.063Z,9.70
2022-12-20T10:58:57.115Z,9.77
2022-12-20T11:01:28.123Z,9.43
2022-12-20T11:04:06.576Z,9.00
2022-12-20T11:06:41.683Z,8.65
2022-12-20T11:09:31.159Z,9.05
2022-12-20T11:12:05.582Z,9.77
2022-12-20T11:14:39.188Z,8.95
2022-12-20T11:17:21.864Z,9.70
2022-12-20T11:20:16.157Z,9.93
2022-12-20T11:22:42.983Z,9.57
2022-12-20T11:25:47.484Z,9.23
2022-12-20T11:28:39.940Z,8.77
2022-12-20T11:31:38.562Z,9.85
2022-12-20T11:34:17.050Z,9.25
2022-12-20T11:37:02.291Z,9.83
2022-12-20T11:39:49.984Z,10.45
2022-12-20T11:42:54.091Z,8.38
2022-12-20T11:45:53.991Z,8.82
2022-12-20T11:48:40.477Z,7.63
2022-12-20T11:51:26.780Z,9.20
2022-12-20T11:53:56.908Z,8.52
2022-12-20T11:56:44.596Z,9.07
2022-12-20T11:59:21.013Z,8.93
2022-12-20T12:02:00.829Z,8.57
2022-12-20T12:04:32.463Z,8.27
2022-12-20T12:07:03.529Z,7.63
2022-12-20T12:09:35.359Z,9.43
2022-12-20T12:12:09.901Z,8.93
2022-12-20T12:14:45.610Z,8.43
2022-12-20T12:17:26.783Z,7.18
2022-12-20T12:19:57.087Z,6.68
2022-12-20T12:22:34.643Z,6.68
2022-12-20T12:25:06.008Z,6.65
2022-12-20T12:27:33.333Z,7.07
2022-12-20T12:29:59.928Z,8.20
2022-12-20T12:32:56.689Z,6.80
2022-12-20T12:35:57.211Z,6.35
2022-12-20T12:39:01.711Z,6.32
2022-12-20T12:41:44.446Z,4.95
2022-12-20T12:44:20.730Z,5.30
2022-12-20T12:46:55.688Z,5.38
2022-12-20T12:49:28.324Z,5.57
2022-12-20T12:51:58.878Z,5.18
2022-12-20T12:54:30.557Z,5.18
2022-12-20T12:57:17.881Z,5.10
2022-12-20T12:59:47.074Z,4.70
2022-12-20T13:02:14.596Z,5.07
2022-12-20T13:04:59.827Z,4.72
2022-12-20T13:07:35.644Z,4.85
2022-12-20T13:10:24.974Z,5.45
2022-12-20T13:12:52.962Z,5.28
2022-12-20T13:15:22.815Z,5.18
2022-12-20T13:17:52.970Z,5.90
2022-12-20T13:20:26.136Z,5.65
2022-12-20T13:23:07.664Z,5.97
2022-12-20T13:25:52.725Z,5.03
2022-12-20T13:28:25.300Z,5.43
2022-12-20T13:30:58.241Z,5.63
2022-12-20T13:33:44.472Z,5.35
2022-12-20T13:36:11.737Z,4.93
2022-12-20T13:38:56.460Z,4.95
2022-12-20T13:41:38.996Z,4.43
2022-12-20T13:44:16.219Z,4.03
2022-12-20T13:47:28.788Z,3.55
2022-12-20T13:49:59.514Z,7.13
2022-12-20T13:52:44.062Z,4.95
2022-12-20T13:55:42.696Z,4.32
2022-12-20T13:58:17.620Z,6.13
2022-12-20T14:00:45.241Z,12.70
2022-12-20T14:03:25.728Z,4.68
2022-12-20T14:06:12.216Z,3.53
2022-12-20T14:08:43.803Z,2.92
2022-12-20T14:11:13.787Z,3.30
2022-12-20T14:16:18.865Z,4.55
2022-12-20T14:19:02.926Z,5.88
2022-12-20T14:21:30.405Z,8.20
2022-12-20T14:24:00.738Z,7.07
2022-12-20T14:26:30.015Z,4.13
2022-12-20T14:28:59.252Z,3.97
2022-12-20T14:31:32.621Z,8.43
2022-12-20T14:34:11.318Z,4.18
2022-12-20T14:36:40.382Z,3.50
2022-12-20T14:39:30.216Z,5.05
2022-12-20T14:42:20.835Z,2.80
2022-12-20T14:44:47.828Z,4.03
2022-12-20T14:47:25.097Z,2.72
2022-12-20T14:50:00.793Z,2.90
2022-12-20T14:52:36.375Z,2.67
2022-12-20T14:55:19.960Z,4.13
2022-12-20T14:57:53.867Z,3.13
2022-12-20T15:00:23.515Z,4.93
2022-12-20T15:03:01.954Z,5.38
2022-12-20T15:05:35.300Z,8.13
2022-12-20T15:08:16.341Z,8.48
2022-12-20T15:10:49.426Z,6.43
2022-12-20T15:13:18.749Z,14.57
2022-12-20T15:15:46.164Z,4.53
2022-12-20T15:18:19.666Z,5.35
2022-12-20T15:20:52.231Z,4.93
2022-12-20T15:23:21.727Z,4.50
2022-12-20T15:25:48.546Z,5.75
2022-12-20T15:28:20.949Z,4.63
2022-12-20T15:30:49.121Z,8.82
2022-12-20T15:33:43.236Z,3.78
2022-12-20T15:36:17.943Z,3.90
2022-12-20T15:41:33.876Z,4.15
2022-12-20T15:44:05.494Z,6.05
2022-12-20T15:46:32.772Z,5.65
2022-12-20T15:48:59.990Z,4.63
2022-12-20T15:51:37.952Z,3.47
2022-12-20T15:54:14.331Z,3.90
2022-12-20T15:56:40.900Z,4.15
2022-12-20T15:59:32.520Z,3.83
2022-12-20T16:01:55.370Z,4.07
2022-12-20T16:04:23.553Z,4.93
2022-12-20T16:06:53.467Z,5.43
2022-12-20T16:09:21.878Z,6.03
2022-12-20T16:11:48.504Z,5.45
2022-12-20T16:14:18.169Z,5.22
2022-12-20T16:16:45.472Z,5.50
2022-12-20T16:19:12.808Z,5.03
2022-12-20T16:21:51.345Z,5.20
2022-12-20T16:24:20.257Z,5.38
2022-12-20T16:26:48.786Z,5.28
2022-12-20T16:29:16.049Z,4.60
2022-12-20T16:31:42.910Z,5.20
2022-12-20T16:34:15.808Z,5.20
2022-12-20T16:36:42.784Z,5.72
2022-12-20T16:39:12.782Z,5.20
2022-12-20T16:44:14.467Z,5.40
2022-12-20T16:46:41.678Z,5.43
2022-12-20T16:49:15.008Z,5.95
2022-12-20T16:51:48.326Z,5.43
2022-12-20T16:54:22.522Z,5.47
2022-12-20T16:56:55.905Z,5.72
2022-12-20T16:59:26.528Z,4.95
2022-12-20T17:01:56.152Z,5.40
2022-12-20T17:04:24.514Z,5.70
2022-12-20T17:06:51.139Z,5.95
2022-12-20T17:12:05.465Z,4.35
2022-12-20T17:14:32.683Z,5.20
2022-12-20T17:16:59.990Z,5.72
2022-12-20T17:19:26.941Z,5.97
2022-12-20T17:24:38.021Z,5.80
2022-12-20T17:27:04.813Z,6.57
2022-12-20T17:29:32.055Z,7.82
2022-12-20T17:31:58.724Z,11.10
2022-12-20T17:34:28.666Z,7.72
2022-12-20T17:36:57.325Z,7.30
2022-12-20T17:39:26.440Z,7.88
2022-12-20T17:41:55.017Z,6.63
2022-12-20T17:44:25.844Z,7.18
2022-12-20T17:46:53.836Z,7.57
2022-12-20T17:49:21.082Z,7.32
2022-12-20T17:51:47.934Z,7.65
2022-12-20T17:54:24.469Z,13.32
2022-12-20T17:56:52.045Z,11.45
2022-12-20T17:59:20.023Z,10.48
2022-12-20T18:01:47.494Z,10.00
2022-12-20T18:04:16.727Z,8.82
2022-12-20T18:06:45.035Z,8.45
2022-12-20T18:09:17.888Z,8.30
2022-12-20T18:11:45.416Z,7.88
2022-12-20T18:14:12.674Z,7.38
2022-12-20T18:16:40.646Z,8.88
2022-12-20T18:19:14.467Z,9.60
2022-12-20T18:21:42.031Z,8.60
2022-12-20T18:24:13.405Z,8.57
2022-12-20T18:26:41.366Z,8.82
2022-12-20T18:29:09.861Z,9.07
2022-12-20T18:31:37.396Z,9.77
2022-12-20T18:34:04.629Z,8.23
2022-12-20T18:36:37.075Z,9.32
2022-12-20T18:39:06.293Z,8.13
2022-12-20T18:41:33.565Z,8.23
2022-12-20T18:44:05.911Z,8.35
2022-12-20T18:46:34.047Z,8.20
2022-12-20T18:49:01.462Z,9.05
2022-12-20T18:51:31.528Z,9.93
2022-12-20T18:54:00.000Z,9.15
2022-12-20T18:56:32.142Z,10.02
2022-12-20T18:59:08.134Z,9.15
2022-12-20T19:01:39.425Z,8.75
2022-12-20T19:04:07.728Z,8.98
2022-12-20T19:06:35.262Z,8.70
2022-12-20T19:09:04.390Z,8.88
2022-12-20T19:11:31.372Z,8.70
2022-12-20T19:13:57.970Z,8.35
2022-12-20T19:16:29.259Z,9.20
2022-12-20T19:18:56.344Z,8.98
2022-12-20T19:21:28.982Z,8.35
2022-12-20T19:23:58.702Z,9.38
2022-12-20T19:28:54.860Z,9.53
2022-12-20T19:31:24.226Z,9.98
2022-12-20T19:36:40.517Z,9.40
2022-12-20T19:39:12.367Z,9.63
2022-12-20T19:41:40.382Z,10.27
2022-12-20T19:44:07.250Z,10.10
2022-12-20T19:46:35.180Z,10.57
2022-12-20T19:49:01.807Z,9.82
2022-12-20T19:51:29.552Z,10.88
2022-12-20T19:53:58.047Z,10.35
2022-12-20T19:56:28.007Z,10.63
2022-12-20T20:01:26.426Z,10.00
2022-12-20T20:03:54.953Z,10.98
2022-12-20T20:06:23.056Z,10.23
2022-12-20T20:08:50.037Z,10.70
2022-12-20T20:11:23.650Z,8.63
2022-12-20T20:13:50.798Z,10.38
2022-12-20T20:16:22.206Z,10.95
2022-12-20T20:18:50.090Z,10.50
2022-12-20T20:21:22.183Z,10.40
2022-12-20T20:23:53.542Z,10.18
2022-12-20T20:26:26.800Z,9.80
2022-12-20T20:28:53.493Z,11.05
2022-12-20T20:31:21.989Z,11.05
2022-12-20T20:33:48.980Z,10.85
2022-12-20T20:36:19.257Z,10.65
2022-12-20T20:38:46.248Z,10.77
2022-12-20T20:41:14.123Z,11.55
2022-12-20T20:43:42.094Z,10.68
2022-12-20T20:46:11.588Z,9.77
2022-12-20T20:48:39.393Z,10.85
2022-12-20T20:51:06.439Z,11.00
2022-12-20T20:53:34.668Z,10.98
2022-12-20T20:56:03.404Z,10.63
2022-12-20T20:58:31.273Z,11.13
2022-12-20T21:00:59.712Z,12.05
2022-12-20T21:03:28.246Z,11.83
2022-12-20T21:08:59.566Z,12.77
2022-12-20T21:11:27.926Z,10.93
2022-12-20T21:13:55.015Z,13.70
2022-12-20T21:16:22.827Z,12.93
2022-12-20T21:18:54.030Z,11.93
2022-12-20T21:21:22.130Z,12.15
2022-12-20T21:23:49.768Z,11.00
2022-12-20T21:26:18.764Z,10.68
2022-12-20T21:28:46.009Z,9.63
